Time;durP1;ratioP1;P1;durP2;ratioP2;P2;SDS_P1;SDS_P2;PMS_P1;PMS_P2;Temp;Humidity;BMP_temperature;BMP_pressure;BME280_temperature;BME280_humidity;BME280_pressure;Samples;Min_cycle;Max_cycle;Signal;HPM_P1;HPM_P2
2022/08/18 00:01:05;;;;;;;8.48;7.65;;;;;;;;;;5059387;28;20226;-68
2022/08/18 00:03:33;;;;;;;9.23;7.43;;;;;;;;;;5063768;28;20209;-69
2022/08/18 00:06:20;;;;;;;8.07;7.38;;;;;;;;;;5047285;28;20670;-69
2022/08/18 00:08:47;;;;;;;8.13;7.32;;;;;;;;;;5071087;28;20687;-69
2022/08/18 00:11:19;;;;;;;8.80;8.00;;;;;;;;;;5057033;28;20253;-69
2022/08/18 00:13:46;;;;;;;8.23;7.53;;;;;;;;;;5043251;28;20271;-69
2022/08/18 00:16:14;;;;;;;9.48;8.43;;;;;;;;;;5060227;28;20251;-68
2022/08/18 00:18:41;;;;;;;9.52;8.63;;;;;;;;;;5063651;28;20201;-70
2022/08/18 00:21:09;;;;;;;8.05;7.25;;;;;;;;;;5057158;28;20221;-70
2022/08/18 00:23:37;;;;;;;8.07;7.28;;;;;;;;;;5047551;28;20698;-70
2022/08/18 00:26:05;;;;;;;9.20;8.15;;;;;;;;;;5060469;28;20253;-69
2022/08/18 00:28:32;;;;;;;10.88;8.48;;;;;;;;;;5047988;28;20214;-69
2022/08/18 00:31:00;;;;;;;9.07;8.20;;;;;;;;;;5056123;28;20222;-68
2022/08/18 00:33:27;;;;;;;11.00;9.23;;;;;;;;;;5043366;28;20314;-69
2022/08/18 00:35:55;;;;;;;9.77;8.15;;;;;;;;;;5049367;28;20233;-68
2022/08/18 00:38:22;;;;;;;9.82;8.82;;;;;;;;;;5035255;28;20274;-68
2022/08/18 00:40:53;;;;;;;9.45;8.55;;;;;;;;;;5050908;28;20221;-68
2022/08/18 00:43:31;;;;;;;10.30;8.88;;;;;;;;;;5056576;28;20304;-68
2022/08/18 00:45:59;;;;;;;9.32;8.52;;;;;;;;;;5037288;28;20217;-69
2022/08/18 00:48:28;;;;;;;9.68;8.85;;;;;;;;;;5041221;28;20213;-67
2022/08/18 00:50:57;;;;;;;10.07;9.10;;;;;;;;;;5057160;28;20310;-68
2022/08/18 00:53:30;;;;;;;10.30;9.30;;;;;;;;;;5037682;28;20233;-67
2022/08/18 00:55:58;;;;;;;10.80;9.80;;;;;;;;;;5061527;28;20204;-69
2022/08/18 00:58:34;;;;;;;10.70;9.70;;;;;;;;;;5058244;28;20231;-69
2022/08/18 01:01:03;;;;;;;10.77;9.75;;;;;;;;;;5056262;28;20299;-69
2022/08/18 01:03:32;;;;;;;11.20;10.20;;;;;;;;;;5056483;28;21097;-69
2022/08/18 01:06:03;;;;;;;11.07;9.98;;;;;;;;;;5043761;28;20668;-69
2022/08/18 01:08:30;;;;;;;11.40;9.90;;;;;;;;;;5045439;28;20231;-69
2022/08/18 01:11:01;;;;;;;10.50;9.45;;;;;;;;;;5047267;28;20603;-69
2022/08/18 01:13:30;;;;;;;11.25;10.25;;;;;;;;;;5060735;28;20303;-69
2022/08/18 01:15:57;;;;;;;10.95;9.88;;;;;;;;;;5050989;28;20197;-69
2022/08/18 01:24:02;;;;;;;11.23;10.13;;;;;;;;;;5064153;28;20632;-69
2022/08/18 01:26:30;;;;;;;11.23;10.07;;;;;;;;;;5043150;28;20216;-69
2022/08/18 01:29:03;;;;;;;11.23;10.13;;;;;;;;;;5050648;28;20231;-68
2022/08/18 01:31:41;;;;;;;11.60;10.45;;;;;;;;;;5071165;28;20270;-69
2022/08/18 01:34:23;;;;;;;12.88;11.00;;;;;;;;;;5057167;28;20197;-67
2022/08/18 01:36:51;;;;;;;10.35;9.45;;;;;;;;;;5047867;28;20276;-68
2022/08/18 01:39:19;;;;;;;11.82;10.63;;;;;;;;;;5052726;28;20241;-69
2022/08/18 01:42:07;;;;;;;11.60;10.55;;;;;;;;;;5057624;28;20206;-69
2022/08/18 01:44:34;;;;;;;11.02;9.95;;;;;;;;;;5068937;28;20225;-69
2022/08/18 01:47:03;;;;;;;10.90;9.85;;;;;;;;;;5058950;28;20217;-69
2022/08/18 01:49:31;;;;;;;11.18;10.02;;;;;;;;;;5041276;28;20225;-69
2022/08/18 01:51:58;;;;;;;10.93;9.82;;;;;;;;;;5054634;28;20201;-69
2022/08/18 01:54:29;;;;;;;13.15;11.32;;;;;;;;;;5060639;28;20206;-70
2022/08/18 01:56:56;;;;;;;11.82;10.60;;;;;;;;;;5051008;28;20201;-69
2022/08/18 01:59:24;;;;;;;11.88;10.77;;;;;;;;;;5041127;28;20297;-70
2022/08/18 02:01:54;;;;;;;11.57;10.50;;;;;;;;;;5046533;28;20450;-69
2022/08/18 02:04:24;;;;;;;12.23;10.65;;;;;;;;;;5047841;28;20292;-69
2022/08/18 02:07:08;;;;;;;11.70;10.70;;;;;;;;;;5054710;28;20205;-70
2022/08/18 02:09:36;;;;;;;11.38;10.38;;;;;;;;;;5039061;28;20225;-68
2022/08/18 02:12:04;;;;;;;11.55;10.45;;;;;;;;;;5043284;28;20827;-69
2022/08/18 02:14:33;;;;;;;12.27;11.13;;;;;;;;;;5041590;28;20293;-70
2022/08/18 02:17:01;;;;;;;12.65;11.50;;;;;;;;;;5059892;28;20206;-69
2022/08/18 02:19:37;;;;;;;13.48;12.13;;;;;;;;;;5048888;28;20225;-69
2022/08/18 02:22:05;;;;;;;14.13;12.73;;;;;;;;;;5061699;28;20197;-70
2022/08/18 02:24:32;;;;;;;15.07;13.77;;;;;;;;;;5040544;28;20687;-69
2022/08/18 02:27:00;;;;;;;14.57;13.20;;;;;;;;;;5036270;28;20239;-68
2022/08/18 02:29:27;;;;;;;14.88;13.40;;;;;;;;;;5042115;28;20251;-70
2022/08/18 02:31:55;;;;;;;13.70;12.43;;;;;;;;;;5045448;28;20246;-69
2022/08/18 02:34:22;;;;;;;14.65;13.35;;;;;;;;;;5045618;28;20221;-69
2022/08/18 02:36:50;;;;;;;15.05;13.65;;;;;;;;;;5058027;28;20208;-69
2022/08/18 02:39:17;;;;;;;14.75;13.25;;;;;;;;;;5044225;28;20224;-69
2022/08/18 02:41:44;;;;;;;14.52;13.13;;;;;;;;;;5043934;28;20205;-68
2022/08/18 02:44:12;;;;;;;13.52;12.27;;;;;;;;;;5041681;28;20206;-68
2022/08/18 02:46:40;;;;;;;14.20;12.88;;;;;;;;;;5060217;28;20221;-68
2022/08/18 02:49:07;;;;;;;14.35;12.32;;;;;;;;;;5056007;28;20354;-67
2022/08/18 02:51:35;;;;;;;14.07;12.70;;;;;;;;;;5046857;28;20618;-70
2022/08/18 02:54:08;;;;;;;14.38;12.98;;;;;;;;;;5031852;28;20233;-69
2022/08/18 02:56:37;;;;;;;16.63;15.02;;;;;;;;;;5033656;28;20224;-68
2022/08/18 02:59:14;;;;;;;15.95;14.38;;;;;;;;;;5049891;28;20229;-69
2022/08/18 03:01:43;;;;;;;14.80;13.40;;;;;;;;;;5054867;28;20201;-68
2022/08/18 03:04:14;;;;;;;15.82;14.32;;;;;;;;;;5045627;28;20752;-66
2022/08/18 03:06:42;;;;;;;15.25;13.80;;;;;;;;;;5051873;28;20202;-69
2022/08/18 03:09:10;;;;;;;18.10;16.08;;;;;;;;;;5062001;28;20267;-68
2022/08/18 03:11:39;;;;;;;17.27;15.57;;;;;;;;;;5067306;28;20216;-69
2022/08/18 03:14:06;;;;;;;17.52;15.77;;;;;;;;;;5046874;28;20283;-69
2022/08/18 03:16:39;;;;;;;17.10;15.40;;;;;;;;;;5071971;28;20220;-68
2022/08/18 03:19:21;;;;;;;18.38;14.88;;;;;;;;;;5067766;28;20229;-67
2022/08/18 03:21:49;;;;;;;18.77;16.83;;;;;;;;;;5045558;28;20200;-68
2022/08/18 03:24:17;;;;;;;22.65;17.63;;;;;;;;;;5037458;28;20214;-69
2022/08/18 03:26:50;;;;;;;19.42;17.40;;;;;;;;;;5051825;28;20209;-68
2022/08/18 03:29:17;;;;;;;19.65;17.55;;;;;;;;;;5048801;28;20233;-69
2022/08/18 03:31:47;;;;;;;19.55;17.35;;;;;;;;;;5044325;28;20202;-67
2022/08/18 03:34:18;;;;;;;19.55;17.42;;;;;;;;;;5065224;28;20314;-69
2022/08/18 03:36:55;;;;;;;22.02;18.05;;;;;;;;;;5067739;28;20205;-66
2022/08/18 03:39:23;;;;;;;20.50;17.58;;;;;;;;;;5062253;28;20217;-68
2022/08/18 03:41:53;;;;;;;18.80;16.80;;;;;;;;;;5067226;28;20205;-68
2022/08/18 03:44:29;;;;;;;20.10;17.50;;;;;;;;;;5048157;28;20217;-68
2022/08/18 03:46:57;;;;;;;18.83;16.92;;;;;;;;;;5069560;28;20752;-67
2022/08/18 03:49:26;;;;;;;16.73;15.07;;;;;;;;;;5051018;28;20660;-67
2022/08/18 03:51:54;;;;;;;16.75;15.15;;;;;;;;;;5049043;28;20900;-66
2022/08/18 03:54:21;;;;;;;16.70;15.02;;;;;;;;;;5048391;28;20642;-65
2022/08/18 03:56:48;;;;;;;17.10;15.48;;;;;;;;;;5064005;28;20568;-68
2022/08/18 03:59:18;;;;;;;17.58;15.68;;;;;;;;;;5050208;28;20207;-69
2022/08/18 04:01:47;;;;;;;17.15;15.45;;;;;;;;;;5048966;28;20631;-68
2022/08/18 04:04:17;;;;;;;17.00;15.23;;;;;;;;;;5068928;28;20212;-69
2022/08/18 04:06:50;;;;;;;17.67;15.98;;;;;;;;;;5063264;28;20206;-68
2022/08/18 04:09:18;;;;;;;17.23;15.45;;;;;;;;;;5045780;28;20270;-67
2022/08/18 04:11:45;;;;;;;16.85;15.25;;;;;;;;;;5052739;28;20251;-67
2022/08/18 04:14:16;;;;;;;20.55;18.42;;;;;;;;;;5058886;28;20229;-67
2022/08/18 04:16:44;;;;;;;22.77;19.20;;;;;;;;;;5062107;28;20263;-67
2022/08/18 04:19:12;;;;;;;20.17;18.15;;;;;;;;;;5049861;28;20204;-68
2022/08/18 04:21:52;;;;;;;19.15;17.20;;;;;;;;;;5060401;28;20218;-66
2022/08/18 04:24:20;;;;;;;17.65;15.95;;;;;;;;;;5042783;28;20209;-67
2022/08/18 04:26:48;;;;;;;18.90;16.88;;;;;;;;;;5059726;28;20283;-68
2022/08/18 04:29:17;;;;;;;18.98;17.17;;;;;;;;;;5043534;28;20682;-67
2022/08/18 04:31:45;;;;;;;20.30;18.42;;;;;;;;;;5063248;28;20208;-68
2022/08/18 04:34:13;;;;;;;17.92;16.15;;;;;;;;;;5048242;28;20324;-68
2022/08/18 04:36:41;;;;;;;16.80;15.18;;;;;;;;;;5065776;28;20236;-67
2022/08/18 04:39:09;;;;;;;16.63;15.02;;;;;;;;;;5063556;28;20581;-68
2022/08/18 04:41:38;;;;;;;17.52;15.88;;;;;;;;;;5067303;28;20546;-66
2022/08/18 04:44:07;;;;;;;16.33;14.73;;;;;;;;;;5061206;28;20213;-67
2022/08/18 04:46:39;;;;;;;17.15;14.93;;;;;;;;;;5079490;28;20214;-67
2022/08/18 04:49:08;;;;;;;17.83;16.15;;;;;;;;;;5049873;28;20209;-67
2022/08/18 04:51:35;;;;;;;17.58;15.88;;;;;;;;;;5077381;28;20210;-67
2022/08/18 04:54:23;;;;;;;16.77;15.00;;;;;;;;;;5058695;28;20299;-67
2022/08/18 04:56:51;;;;;;;17.33;15.68;;;;;;;;;;5051198;28;20197;-66
2022/08/18 04:59:19;;;;;;;18.75;16.85;;;;;;;;;;5066158;28;20719;-66
2022/08/18 05:01:46;;;;;;;18.85;16.95;;;;;;;;;;5050491;28;23372;-68
2022/08/18 05:04:15;;;;;;;19.45;17.55;;;;;;;;;;5055815;28;20266;-66
2022/08/18 05:06:44;;;;;;;20.23;18.08;;;;;;;;;;5062849;28;20297;-69
2022/08/18 05:09:12;;;;;;;20.10;17.90;;;;;;;;;;5039418;28;20209;-68
2022/08/18 05:11:43;;;;;;;20.42;17.95;;;;;;;;;;5040436;28;20262;-67
2022/08/18 05:14:11;;;;;;;20.50;18.38;;;;;;;;;;5046449;28;20225;-68
2022/08/18 05:16:39;;;;;;;21.23;19.00;;;;;;;;;;5060902;28;20284;-66
2022/08/18 05:19:18;;;;;;;20.27;18.10;;;;;;;;;;5047655;28;20876;-68
2022/08/18 05:21:52;;;;;;;20.55;18.52;;;;;;;;;;5050180;28;20253;-67
2022/08/18 05:24:26;;;;;;;20.90;18.70;;;;;;;;;;5042264;28;20308;-66
2022/08/18 05:27:04;;;;;;;21.10;19.02;;;;;;;;;;5038940;28;20204;-67
2022/08/18 05:29:35;;;;;;;21.00;18.90;;;;;;;;;;5049688;28;20239;-68
2022/08/18 05:32:13;;;;;;;19.40;17.50;;;;;;;;;;5040546;28;20204;-69
2022/08/18 05:35:07;;;;;;;19.30;17.30;;;;;;;;;;5064990;28;20275;-68
2022/08/18 05:37:53;;;;;;;19.08;17.15;;;;;;;;;;5048329;28;20209;-67
2022/08/18 05:40:23;;;;;;;19.00;17.10;;;;;;;;;;5044223;28;20308;-66
2022/08/18 05:42:56;;;;;;;19.48;17.45;;;;;;;;;;5040736;28;20673;-67
2022/08/18 05:45:24;;;;;;;18.88;16.98;;;;;;;;;;5065146;28;20202;-69
2022/08/18 05:47:56;;;;;;;18.25;16.48;;;;;;;;;;5068151;28;20210;-66
2022/08/18 05:50:23;;;;;;;19.48;17.00;;;;;;;;;;5051967;28;20727;-67
2022/08/18 05:53:07;;;;;;;17.98;16.17;;;;;;;;;;5045444;28;20732;-67
2022/08/18 05:58:32;;;;;;;17.83;16.13;;;;;;;;;;5059159;28;20248;-68
2022/08/18 06:01:07;;;;;;;17.90;16.00;;;;;;;;;;5050679;28;20230;-67
2022/08/18 06:03:40;;;;;;;16.83;15.13;;;;;;;;;;5062657;28;20307;-68
2022/08/18 06:06:15;;;;;;;16.40;14.73;;;;;;;;;;5063665;28;20209;-68
2022/08/18 06:08:48;;;;;;;15.85;14.32;;;;;;;;;;5062857;28;20216;-67
2022/08/18 06:11:16;;;;;;;17.10;14.80;;;;;;;;;;5078726;28;20232;-67
2022/08/18 06:13:49;;;;;;;16.02;14.52;;;;;;;;;;5054370;28;20260;-67
2022/08/18 06:16:25;;;;;;;17.33;14.68;;;;;;;;;;5048353;28;20666;-67
2022/08/18 06:19:01;;;;;;;15.82;14.32;;;;;;;;;;5071681;28;20250;-68
2022/08/18 06:21:29;;;;;;;15.90;14.35;;;;;;;;;;5047932;28;20204;-67
2022/08/18 06:23:59;;;;;;;14.93;13.52;;;;;;;;;;5053188;28;20632;-68
2022/08/18 06:26:33;;;;;;;15.68;14.18;;;;;;;;;;5046965;28;20612;-67
2022/08/18 06:29:09;;;;;;;16.30;14.70;;;;;;;;;;5060201;28;20688;-68
2022/08/18 06:31:40;;;;;;;16.38;14.68;;;;;;;;;;5047638;28;20219;-67
2022/08/18 06:34:10;;;;;;;16.77;15.07;;;;;;;;;;5037100;28;20292;-67
2022/08/18 06:36:40;;;;;;;16.17;14.52;;;;;;;;;;5042955;28;20236;-68
2022/08/18 06:39:14;;;;;;;15.88;14.40;;;;;;;;;;5055639;28;20608;-68
2022/08/18 06:41:43;;;;;;;15.13;13.68;;;;;;;;;;5049817;28;20248;-68
2022/08/18 06:44:12;;;;;;;15.82;13.77;;;;;;;;;;5058748;28;20210;-67
2022/08/18 06:47:03;;;;;;;15.10;13.60;;;;;;;;;;5045998;28;20210;-68
2022/08/18 06:49:30;;;;;;;15.20;13.70;;;;;;;;;;5043708;28;20245;-68
2022/08/18 06:51:58;;;;;;;14.55;13.05;;;;;;;;;;5058457;28;20206;-68
2022/08/18 06:54:27;;;;;;;14.95;13.45;;;;;;;;;;5040033;28;20735;-68
2022/08/18 06:56:56;;;;;;;14.05;12.65;;;;;;;;;;5065072;28;20197;-67
2022/08/18 06:59:23;;;;;;;13.63;12.40;;;;;;;;;;5049060;28;20221;-66
2022/08/18 07:01:53;;;;;;;13.80;12.40;;;;;;;;;;5047962;28;20229;-68
2022/08/18 07:04:31;;;;;;;14.68;13.30;;;;;;;;;;5047174;28;20217;-68
2022/08/18 07:06:59;;;;;;;16.00;13.35;;;;;;;;;;5053996;28;20205;-65
2022/08/18 07:09:32;;;;;;;14.18;12.82;;;;;;;;;;5043702;28;20777;-68
2022/08/18 07:12:05;;;;;;;14.77;13.27;;;;;;;;;;5051042;28;20206;-67
2022/08/18 07:14:42;;;;;;;15.45;14.02;;;;;;;;;;5063806;28;20225;-68
2022/08/18 07:17:12;;;;;;;18.05;14.63;;;;;;;;;;5057507;28;20247;-67
2022/08/18 07:19:40;;;;;;;16.08;14.48;;;;;;;;;;5072565;28;20283;-68
2022/08/18 07:22:12;;;;;;;15.15;13.55;;;;;;;;;;5068738;28;20205;-68
2022/08/18 07:24:42;;;;;;;13.90;12.60;;;;;;;;;;5060188;28;20388;-67
2022/08/18 07:27:16;;;;;;;16.13;14.52;;;;;;;;;;5054641;28;20208;-68
2022/08/18 07:30:04;;;;;;;17.10;14.65;;;;;;;;;;5060645;28;20244;-67
2022/08/18 07:32:36;;;;;;;17.30;15.23;;;;;;;;;;5049718;28;20210;-67
2022/08/18 07:35:05;;;;;;;18.30;16.52;;;;;;;;;;5049060;28;20221;-68
2022/08/18 07:37:42;;;;;;;18.27;16.30;;;;;;;;;;5057575;28;20202;-66
2022/08/18 07:40:25;;;;;;;18.17;16.25;;;;;;;;;;5064266;28;20298;-68
2022/08/18 07:43:06;;;;;;;17.80;16.00;;;;;;;;;;5063111;28;20686;-68
2022/08/18 07:45:40;;;;;;;18.63;16.73;;;;;;;;;;5055057;28;20236;-67
2022/08/18 07:48:27;;;;;;;18.90;16.90;;;;;;;;;;5071478;28;20204;-69
2022/08/18 07:51:24;;;;;;;16.88;15.23;;;;;;;;;;5053456;28;20734;-67
2022/08/18 07:54:22;;;;;;;16.92;14.25;;;;;;;;;;5067540;28;20224;-67
2022/08/18 07:57:28;;;;;;;14.93;13.52;;;;;;;;;;5043957;28;20735;-66
2022/08/18 07:59:56;;;;;;;15.35;13.75;;;;;;;;;;5059131;28;20249;-66
2022/08/18 08:02:27;;;;;;;15.20;13.40;;;;;;;;;;5048814;28;20206;-66
2022/08/18 08:05:01;;;;;;;14.63;13.05;;;;;;;;;;5064551;28;20198;-67
2022/08/18 08:07:40;;;;;;;14.90;13.32;;;;;;;;;;5061523;28;20255;-66
2022/08/18 08:10:14;;;;;;;14.15;12.75;;;;;;;;;;5051248;28;20258;-67
2022/08/18 08:12:56;;;;;;;14.27;12.77;;;;;;;;;;5060531;28;20255;-67
2022/08/18 08:15:56;;;;;;;13.30;12.10;;;;;;;;;;5049499;28;20210;-67
2022/08/18 08:18:23;;;;;;;13.90;12.57;;;;;;;;;;5060787;28;20216;-66
2022/08/18 08:20:58;;;;;;;13.40;12.15;;;;;;;;;;5054259;28;20691;-66
2022/08/18 08:23:33;;;;;;;12.93;11.73;;;;;;;;;;5049660;28;20793;-68
2022/08/18 08:26:00;;;;;;;13.35;12.02;;;;;;;;;;5058024;28;20196;-67
2022/08/18 08:28:34;;;;;;;12.93;11.63;;;;;;;;;;5043809;28;20713;-67
2022/08/18 08:31:08;;;;;;;12.73;11.43;;;;;;;;;;5053075;28;20236;-68
2022/08/18 08:34:04;;;;;;;13.60;12.35;;;;;;;;;;5063367;28;20684;-67
2022/08/18 08:36:35;;;;;;;11.55;10.50;;;;;;;;;;5050275;28;20202;-67
2022/08/18 08:39:11;;;;;;;12.20;11.00;;;;;;;;;;5060635;28;20205;-68
2022/08/18 08:41:49;;;;;;;11.90;10.88;;;;;;;;;;5061903;28;20815;-67
2022/08/18 08:44:21;;;;;;;11.90;10.80;;;;;;;;;;5063797;28;20300;-67
2022/08/18 08:46:58;;;;;;;12.25;11.10;;;;;;;;;;5039946;28;20217;-67
2022/08/18 08:49:25;;;;;;;11.45;10.45;;;;;;;;;;5047557;28;20225;-67
2022/08/18 08:51:56;;;;;;;12.23;11.13;;;;;;;;;;5044004;28;20262;-67
2022/08/18 08:54:24;;;;;;;11.35;10.45;;;;;;;;;;5030423;28;20945;-67
2022/08/18 08:56:53;;;;;;;10.90;9.90;;;;;;;;;;5042949;28;20202;-66
2022/08/18 08:59:22;;;;;;;10.52;9.63;;;;;;;;;;5058546;28;20626;-67
2022/08/18 09:01:52;;;;;;;10.23;9.23;;;;;;;;;;5034701;28;20250;-67
2022/08/18 09:04:20;;;;;;;9.85;8.95;;;;;;;;;;5062956;28;20212;-67
2022/08/18 09:07:07;;;;;;;9.20;8.30;;;;;;;;;;5053653;28;20561;-67
2022/08/18 09:09:53;;;;;;;8.05;7.25;;;;;;;;;;5037570;28;20225;-67
2022/08/18 09:12:40;;;;;;;8.00;7.28;;;;;;;;;;5060843;28;20209;-67
2022/08/18 09:15:17;;;;;;;8.00;7.20;;;;;;;;;;5063368;28;20246;-68
2022/08/18 09:17:58;;;;;;;7.15;6.28;;;;;;;;;;5058162;28;20193;-67
2022/08/18 09:20:25;;;;;;;7.15;6.40;;;;;;;;;;5049073;28;20217;-67
2022/08/18 09:22:55;;;;;;;7.05;6.47;;;;;;;;;;5050081;28;20263;-67
2022/08/18 09:25:40;;;;;;;7.65;6.10;;;;;;;;;;5051051;28;20271;-68
2022/08/18 09:28:27;;;;;;;5.80;5.30;;;;;;;;;;5060092;28;20687;-67
2022/08/18 09:31:06;;;;;;;7.68;6.97;;;;;;;;;;5049723;28;20218;-68
2022/08/18 09:33:44;;;;;;;6.93;6.00;;;;;;;;;;5033655;28;20211;-67
2022/08/18 09:36:23;;;;;;;6.75;6.25;;;;;;;;;;5050495;28;20809;-66
2022/08/18 09:42:28;;;;;;;6.60;5.93;;;;;;;;;;5067359;28;20252;-67
2022/08/18 09:44:59;;;;;;;6.43;5.90;;;;;;;;;;5053496;28;20225;-66
2022/08/18 09:47:27;;;;;;;6.82;6.10;;;;;;;;;;5064605;28;20222;-66
2022/08/18 09:50:05;;;;;;;6.05;5.47;;;;;;;;;;5042961;28;20309;-68
2022/08/18 09:52:36;;;;;;;6.18;5.57;;;;;;;;;;5064712;28;20210;-68
2022/08/18 09:55:27;;;;;;;5.45;4.95;;;;;;;;;;5045972;28;20226;-68
2022/08/18 09:58:30;;;;;;;6.10;5.50;;;;;;;;;;5063990;28;20660;-67
2022/08/18 10:01:18;;;;;;;5.47;4.97;;;;;;;;;;4985568;28;20298;-68
2022/08/18 10:04:05;;;;;;;5.63;5.20;;;;;;;;;;5042161;28;20300;-68
2022/08/18 10:06:38;;;;;;;5.95;5.45;;;;;;;;;;5030363;28;20707;-68
2022/08/18 10:09:34;;;;;;;5.90;5.40;;;;;;;;;;5063198;28;20877;-67
2022/08/18 10:12:39;;;;;;;5.50;5.00;;;;;;;;;;5065821;28;20204;-66
2022/08/18 10:15:18;;;;;;;5.78;5.30;;;;;;;;;;5048125;28;20225;-67
2022/08/18 10:18:08;;;;;;;5.47;4.97;;;;;;;;;;5045393;28;20525;-67
2022/08/18 10:20:41;;;;;;;5.53;5.10;;;;;;;;;;5057191;28;20251;-68
2022/08/18 10:23:09;;;;;;;5.63;5.20;;;;;;;;;;5045343;28;20671;-68
2022/08/18 10:25:46;;;;;;;6.30;5.70;;;;;;;;;;5055879;28;20879;-67
2022/08/18 10:28:33;;;;;;;6.30;5.70;;;;;;;;;;5043500;28;20201;-66
2022/08/18 10:31:06;;;;;;;5.50;5.10;;;;;;;;;;5061146;28;20782;-66
2022/08/18 10:33:54;;;;;;;6.10;5.60;;;;;;;;;;5066395;28;20716;-67
2022/08/18 10:36:40;;;;;;;5.55;5.05;;;;;;;;;;5049772;28;20608;-65
2022/08/18 10:39:11;;;;;;;5.55;5.07;;;;;;;;;;5066474;28;20254;-66
2022/08/18 10:41:48;;;;;;;5.13;4.72;;;;;;;;;;5071242;28;20278;-67
2022/08/18 10:44:21;;;;;;;5.25;4.85;;;;;;;;;;5052085;28;20201;-67
2022/08/18 10:47:09;;;;;;;5.03;4.40;;;;;;;;;;5052546;28;20641;-68
2022/08/18 10:49:38;;;;;;;5.03;4.60;;;;;;;;;;5051566;28;20234;-67
2022/08/18 10:52:31;;;;;;;6.32;4.57;;;;;;;;;;5055465;28;20258;-67
2022/08/18 10:55:07;;;;;;;5.22;4.82;;;;;;;;;;5083563;28;20235;-67
2022/08/18 10:57:55;;;;;;;5.55;5.05;;;;;;;;;;5074224;28;20197;-67
2022/08/18 11:00:27;;;;;;;5.07;4.68;;;;;;;;;;5074959;28;20253;-67
2022/08/18 11:02:58;;;;;;;5.55;5.15;;;;;;;;;;5054820;28;20208;-67
2022/08/18 11:05:45;;;;;;;6.22;5.10;;;;;;;;;;5061347;28;20209;-69
2022/08/18 11:08:16;;;;;;;6.63;5.53;;;;;;;;;;5063425;28;20215;-67
2022/08/18 11:10:49;;;;;;;5.15;4.75;;;;;;;;;;5065625;28;20230;-68
2022/08/18 11:13:41;;;;;;;5.40;5.00;;;;;;;;;;5063898;28;20210;-68
2022/08/18 11:16:12;;;;;;;6.55;5.13;;;;;;;;;;5069487;28;20241;-68
2022/08/18 11:18:42;;;;;;;5.28;4.88;;;;;;;;;;5072201;28;20280;-68
2022/08/18 11:21:31;;;;;;;5.28;4.85;;;;;;;;;;5059155;28;20221;-67
2022/08/18 11:24:19;;;;;;;4.88;4.47;;;;;;;;;;5050375;28;20244;-67
2022/08/18 11:26:47;;;;;;;5.00;4.60;;;;;;;;;;5057942;28;20325;-67
2022/08/18 11:29:25;;;;;;;5.20;4.70;;;;;;;;;;5049913;28;20241;-67
2022/08/18 11:31:56;;;;;;;5.55;5.13;;;;;;;;;;5067663;28;20206;-68
2022/08/18 11:34:36;;;;;;;5.15;4.65;;;;;;;;;;5060240;28;20254;-67
2022/08/18 11:37:06;;;;;;;5.90;5.15;;;;;;;;;;5046767;28;20252;-67
2022/08/18 11:39:41;;;;;;;4.82;4.43;;;;;;;;;;5066821;28;20226;-68
2022/08/18 11:42:09;;;;;;;5.30;4.82;;;;;;;;;;5055953;28;20256;-70
2022/08/18 11:44:53;;;;;;;5.35;4.85;;;;;;;;;;5067908;28;20209;-69
2022/08/18 11:47:21;;;;;;;5.50;5.00;;;;;;;;;;5048527;28;20213;-67
2022/08/18 11:49:56;;;;;;;5.38;4.88;;;;;;;;;;5058764;28;20255;-67
2022/08/18 11:52:26;;;;;;;4.72;4.28;;;;;;;;;;5068050;28;20209;-67
2022/08/18 11:55:02;;;;;;;5.15;4.75;;;;;;;;;;5066440;28;20221;-69
2022/08/18 11:57:53;;;;;;;5.85;4.47;;;;;;;;;;5061553;28;20226;-68
2022/08/18 12:00:35;;;;;;;4.78;4.40;;;;;;;;;;5057854;28;20308;-67
2022/08/18 12:03:14;;;;;;;5.05;4.55;;;;;;;;;;5062558;28;20747;-68
2022/08/18 12:05:53;;;;;;;5.50;4.57;;;;;;;;;;5070152;28;20260;-67
2022/08/18 12:08:32;;;;;;;8.48;4.47;;;;;;;;;;5072613;28;20230;-68
2022/08/18 12:11:22;;;;;;;5.13;4.63;;;;;;;;;;5051523;28;20229;-68
2022/08/18 12:14:04;;;;;;;5.15;4.75;;;;;;;;;;5058687;28;20651;-69
2022/08/18 12:16:52;;;;;;;4.68;4.25;;;;;;;;;;5061501;28;20224;-67
2022/08/18 12:19:21;;;;;;;5.80;5.07;;;;;;;;;;5053781;28;20213;-67
2022/08/18 12:21:50;;;;;;;6.00;4.20;;;;;;;;;;5074528;28;20261;-67
2022/08/18 12:24:24;;;;;;;5.13;4.63;;;;;;;;;;5062955;28;20232;-67
2022/08/18 12:27:03;;;;;;;4.70;4.30;;;;;;;;;;5075421;28;20202;-67
2022/08/18 12:29:48;;;;;;;5.53;4.43;;;;;;;;;;5061164;28;20270;-69
2022/08/18 12:32:16;;;;;;;5.30;4.80;;;;;;;;;;5062823;28;20216;-67
2022/08/18 12:35:04;;;;;;;5.13;4.72;;;;;;;;;;5062496;28;20228;-69
2022/08/18 12:37:37;;;;;;;5.68;4.85;;;;;;;;;;5063856;28;20213;-67
2022/08/18 12:40:24;;;;;;;5.43;5.00;;;;;;;;;;5051533;28;20566;-69
2022/08/18 12:42:52;;;;;;;6.82;5.13;;;;;;;;;;5048184;28;20206;-68
2022/08/18 12:45:24;;;;;;;6.22;5.63;;;;;;;;;;5053457;28;20710;-67
2022/08/18 12:47:53;;;;;;;5.32;4.82;;;;;;;;;;5051671;28;20581;-67
2022/08/18 12:50:20;;;;;;;6.32;5.75;;;;;;;;;;5044650;28;20298;-67
2022/08/18 12:52:59;;;;;;;5.32;4.93;;;;;;;;;;5051781;28;20681;-67
2022/08/18 12:55:28;;;;;;;6.07;5.57;;;;;;;;;;5049983;28;20238;-68
2022/08/18 12:57:55;;;;;;;6.07;5.57;;;;;;;;;;5047336;28;20580;-67
2022/08/18 13:00:24;;;;;;;5.43;5.00;;;;;;;;;;5058046;28;20236;-67
2022/08/18 13:03:12;;;;;;;5.78;5.28;;;;;;;;;;5060834;28;20205;-68
2022/08/18 13:05:39;;;;;;;6.55;5.95;;;;;;;;;;5062900;28;20209;-68
2022/08/18 13:08:13;;;;;;;6.50;5.85;;;;;;;;;;5049024;28;20229;-69
2022/08/18 13:10:59;;;;;;;6.80;6.20;;;;;;;;;;5050979;28;20230;-67
2022/08/18 13:13:46;;;;;;;7.43;6.45;;;;;;;;;;5072775;28;20624;-67
2022/08/18 13:16:19;;;;;;;6.80;6.20;;;;;;;;;;5047433;28;20214;-66
2022/08/18 13:19:07;;;;;;;7.50;6.80;;;;;;;;;;5063872;28;20209;-66
2022/08/18 13:21:37;;;;;;;6.95;6.35;;;;;;;;;;5067590;28;20198;-66
2022/08/18 13:24:08;;;;;;;7.38;6.68;;;;;;;;;;5053445;28;20217;-68
2022/08/18 13:26:37;;;;;;;7.43;6.75;;;;;;;;;;5046800;28;20738;-66
2022/08/18 13:29:08;;;;;;;7.20;6.50;;;;;;;;;;5065582;28;20214;-68
2022/08/18 13:31:36;;;;;;;7.90;7.13;;;;;;;;;;5048393;28;20210;-67
2022/08/18 13:34:06;;;;;;;8.02;7.00;;;;;;;;;;5060985;28;20205;-66
2022/08/18 13:36:43;;;;;;;8.02;7.25;;;;;;;;;;5034626;28;20237;-67
2022/08/18 13:39:15;;;;;;;8.00;7.40;;;;;;;;;;5049790;28;20208;-68
2022/08/18 13:41:43;;;;;;;8.38;7.57;;;;;;;;;;5063930;28;20202;-67
2022/08/18 13:44:13;;;;;;;8.77;7.97;;;;;;;;;;5036433;28;20214;-67
2022/08/18 13:46:47;;;;;;;8.65;7.88;;;;;;;;;;5063634;28;20316;-67
2022/08/18 13:49:15;;;;;;;8.70;7.82;;;;;;;;;;5054113;28;20280;-66
2022/08/18 13:51:51;;;;;;;8.20;7.40;;;;;;;;;;5057282;28;20242;-66
2022/08/18 13:54:22;;;;;;;8.23;7.50;;;;;;;;;;5064797;28;20209;-67
2022/08/18 13:57:02;;;;;;;8.43;7.70;;;;;;;;;;5053915;28;20230;-66
2022/08/18 13:59:31;;;;;;;7.75;7.05;;;;;;;;;;5058756;28;20224;-68
2022/08/18 14:02:01;;;;;;;7.70;7.10;;;;;;;;;;5049038;28;20209;-69
2022/08/18 14:04:28;;;;;;;8.40;7.63;;;;;;;;;;5049856;28;20773;-67
2022/08/18 14:06:59;;;;;;;9.45;7.65;;;;;;;;;;5051537;28;20300;-67
2022/08/18 14:09:35;;;;;;;8.45;7.65;;;;;;;;;;5061330;28;20634;-67
2022/08/18 14:12:06;;;;;;;10.18;8.40;;;;;;;;;;5051742;28;20211;-66
2022/08/18 14:14:50;;;;;;;9.13;8.40;;;;;;;;;;5057574;28;20200;-68
2022/08/18 14:17:19;;;;;;;9.75;8.85;;;;;;;;;;5064587;28;20599;-67
2022/08/18 14:28:34;;;;;;;10.93;8.32;;;;;;;;;;5024573;28;20775;-67
2022/08/18 14:31:05;;;;;;;8.68;7.95;;;;;;;;;;5038459;28;20228;-68
2022/08/18 14:33:34;;;;;;;10.65;9.15;;;;;;;;;;5050785;28;20301;-67
2022/08/18 14:36:18;;;;;;;10.77;9.25;;;;;;;;;;5067989;28;20220;-68
2022/08/18 14:38:56;;;;;;;10.15;9.23;;;;;;;;;;5068715;28;20198;-68
2022/08/18 14:41:23;;;;;;;8.90;7.97;;;;;;;;;;5049773;28;20214;-67
2022/08/18 14:43:55;;;;;;;9.07;8.27;;;;;;;;;;5055271;28;21351;-68
2022/08/18 14:46:39;;;;;;;8.80;8.10;;;;;;;;;;5061025;28;20217;-68
2022/08/18 14:49:07;;;;;;;9.85;8.75;;;;;;;;;;5078911;28;20673;-66
2022/08/18 14:51:37;;;;;;;8.98;8.18;;;;;;;;;;5069642;28;20209;-67
2022/08/18 14:54:05;;;;;;;8.68;7.90;;;;;;;;;;5066040;28;20218;-67
2022/08/18 14:56:34;;;;;;;8.93;8.10;;;;;;;;;;5052242;28;20234;-66
2022/08/18 14:59:06;;;;;;;13.60;9.10;;;;;;;;;;5051626;28;20245;-67
2022/08/18 15:01:37;;;;;;;8.98;7.60;;;;;;;;;;5045478;28;20206;-68
2022/08/18 15:04:10;;;;;;;7.85;7.18;;;;;;;;;;5076991;28;20212;-67
2022/08/18 15:06:46;;;;;;;8.18;7.47;;;;;;;;;;5055684;28;20198;-66
2022/08/18 15:09:22;;;;;;;7.30;6.55;;;;;;;;;;5062046;28;20600;-67
2022/08/18 15:11:54;;;;;;;7.47;6.80;;;;;;;;;;5077708;28;20582;-67
2022/08/18 15:14:22;;;;;;;7.15;6.53;;;;;;;;;;5051579;28;20303;-68
2022/08/18 15:16:59;;;;;;;7.70;7.00;;;;;;;;;;5046525;28;20225;-67
2022/08/18 15:19:26;;;;;;;7.65;7.05;;;;;;;;;;5058620;28;20348;-67
2022/08/18 15:27:51;;;;;;;7.90;7.20;;;;;;;;;;5040397;28;20217;-68
2022/08/18 15:30:19;;;;;;;7.30;6.55;;;;;;;;;;5035647;28;20239;-70
2022/08/18 15:32:47;;;;;;;8.18;7.47;;;;;;;;;;5028075;28;20223;-69